sensor_id;sensor_type;location;lat;lon;timestamp;P1;durP1;ratioP1;P2;durP2;ratioP2
11211;SDS011;5663;50.864;12.096;2023-05-29T00:01:31;9.97;;;7.10;;
11211;SDS011;5663;50.864;12.096;2023-05-29T00:05:05;9.47;;;6.50;;
11211;SDS011;5663;50.864;12.096;2023-05-29T00:07:47;10.57;;;7.40;;
11211;SDS011;5663;50.864;12.096;2023-05-29T00:11:40;10.03;;;7.43;;
11211;SDS011;5663;50.864;12.096;2023-05-29T00:14:28;11.70;;;7.23;;
11211;SDS011;5663;50.864;12.096;2023-05-29T00:20:58;9.03;;;7.50;;
11211;SDS011;5663;50.864;12.096;2023-05-29T00:24:24;11.90;;;7.50;;
11211;SDS011;5663;50.864;12.096;2023-05-29T00:27:21;10.30;;;6.33;;
11211;SDS011;5663;50.864;12.096;2023-05-29T00:38:31;11.97;;;7.13;;
11211;SDS011;5663;50.864;12.096;2023-05-29T00:41:52;12.60;;;6.63;;
11211;SDS011;5663;50.864;12.096;2023-05-29T00:45:24;9.90;;;8.00;;
11211;SDS011;5663;50.864;12.096;2023-05-29T00:48:22;11.93;;;7.63;;
11211;SDS011;5663;50.864;12.096;2023-05-29T00:51:27;10.53;;;7.43;;
11211;SDS011;5663;50.864;12.096;2023-05-29T00:58:18;13.13;;;8.13;;
11211;SDS011;5663;50.864;12.096;2023-05-29T01:01:05;10.87;;;7.83;;
11211;SDS011;5663;50.864;12.096;2023-05-29T01:04:34;10.53;;;8.10;;
11211;SDS011;5663;50.864;12.096;2023-05-29T01:07:23;12.47;;;8.50;;
11211;SDS011;5663;50.864;12.096;2023-05-29T01:13:35;12.60;;;7.83;;
11211;SDS011;5663;50.864;12.096;2023-05-29T01:16:18;10.37;;;7.37;;
11211;SDS011;5663;50.864;12.096;2023-05-29T01:19:23;9.17;;;7.57;;
11211;SDS011;5663;50.864;12.096;2023-05-29T01:22:50;11.30;;;7.50;;
11211;SDS011;5663;50.864;12.096;2023-05-29T01:29:52;8.83;;;6.63;;
11211;SDS011;5663;50.864;12.096;2023-05-29T01:32:31;9.03;;;7.17;;
11211;SDS011;5663;50.864;12.096;2023-05-29T01:35:35;9.67;;;7.30;;
11211;SDS011;5663;50.864;12.096;2023-05-29T01:46:22;8.93;;;7.17;;
11211;SDS011;5663;50.864;12.096;2023-05-29T01:49:24;12.10;;;8.00;;
11211;SDS011;5663;50.864;12.096;2023-05-29T01:52:21;13.30;;;8.57;;
11211;SDS011;5663;50.864;12.096;2023-05-29T01:55:14;12.60;;;7.60;;
11211;SDS011;5663;50.864;12.096;2023-05-29T01:58:08;8.30;;;6.10;;
11211;SDS011;5663;50.864;12.096;2023-05-29T02:01:42;10.80;;;7.53;;
11211;SDS011;5663;50.864;12.096;2023-05-29T02:06:49;10.20;;;7.67;;
11211;SDS011;5663;50.864;12.096;2023-05-29T02:07:57;10.83;;;6.90;;
11211;SDS011;5663;50.864;12.096;2023-05-29T02:10:41;9.47;;;6.50;;
11211;SDS011;5663;50.864;12.096;2023-05-29T02:13:49;9.27;;;6.13;;
11211;SDS011;5663;50.864;12.096;2023-05-29T02:16:28;11.40;;;7.17;;
11211;SDS011;5663;50.864;12.096;2023-05-29T02:19:27;12.20;;;7.50;;
11211;SDS011;5663;50.864;12.096;2023-05-29T02:25:50;9.20;;;7.20;;
11211;SDS011;5663;50.864;12.096;2023-05-29T02:28:49;9.67;;;6.60;;
11211;SDS011;5663;50.864;12.096;2023-05-29T02:31:43;11.83;;;7.43;;
11211;SDS011;5663;50.864;12.096;2023-05-29T02:34:32;10.33;;;6.87;;
11211;SDS011;5663;50.864;12.096;2023-05-29T02:37:15;11.43;;;6.67;;
11211;SDS011;5663;50.864;12.096;2023-05-29T02:42:55;11.00;;;7.00;;
11211;SDS011;5663;50.864;12.096;2023-05-29T02:45:24;8.80;;;7.00;;
11211;SDS011;5663;50.864;12.096;2023-05-29T02:48:01;10.67;;;6.07;;
11211;SDS011;5663;50.864;12.096;2023-05-29T02:50:59;10.90;;;6.73;;
11211;SDS011;5663;50.864;12.096;2023-05-29T02:53:44;7.97;;;6.20;;
11211;SDS011;5663;50.864;12.096;2023-05-29T02:56:23;7.70;;;5.57;;
11211;SDS011;5663;50.864;12.096;2023-05-29T02:59:08;10.53;;;6.90;;
11211;SDS011;5663;50.864;12.096;2023-05-29T03:01:37;9.90;;;6.57;;
11211;SDS011;5663;50.864;12.096;2023-05-29T03:04:07;7.90;;;6.40;;
11211;SDS011;5663;50.864;12.096;2023-05-29T03:06:53;9.47;;;7.10;;
11211;SDS011;5663;50.864;12.096;2023-05-29T03:09:26;9.07;;;6.40;;
11211;SDS011;5663;50.864;12.096;2023-05-29T03:11:58;9.03;;;6.63;;
11211;SDS011;5663;50.864;12.096;2023-05-29T03:14:31;9.67;;;6.60;;
11211;SDS011;5663;50.864;12.096;2023-05-29T03:17:03;7.80;;;6.10;;
11211;SDS011;5663;50.864;12.096;2023-05-29T03:19:45;8.63;;;6.33;;
11211;SDS011;5663;50.864;12.096;2023-05-29T03:22:21;11.57;;;6.50;;
11211;SDS011;5663;50.864;12.096;2023-05-29T03:24:55;8.37;;;7.07;;
11211;SDS011;5663;50.864;12.096;2023-05-29T03:27:42;8.83;;;6.13;;
11211;SDS011;5663;50.864;12.096;2023-05-29T03:30:36;10.90;;;6.50;;
11211;SDS011;5663;50.864;12.096;2023-05-29T03:37:40;12.37;;;6.60;;
11211;SDS011;5663;50.864;12.096;2023-05-29T03:44:53;7.97;;;5.40;;
11211;SDS011;5663;50.864;12.096;2023-05-29T03:48:28;10.10;;;5.70;;
11211;SDS011;5663;50.864;12.096;2023-05-29T03:51:10;7.97;;;6.17;;
11211;SDS011;5663;50.864;12.096;2023-05-29T03:58:12;7.27;;;5.63;;
11211;SDS011;5663;50.864;12.096;2023-05-29T04:01:14;7.97;;;6.03;;
11211;SDS011;5663;50.864;12.096;2023-05-29T04:04:04;7.97;;;5.80;;
11211;SDS011;5663;50.864;12.096;2023-05-29T11:39:37;4.50;;;3.17;;
11211;SDS011;5663;50.864;12.096;2023-05-29T11:42:11;5.47;;;3.22;;
11211;SDS011;5663;50.864;12.096;2023-05-29T11:44:49;4.45;;;3.22;;
11211;SDS011;5663;50.864;12.096;2023-05-29T11:47:19;5.35;;;3.15;;
11211;SDS011;5663;50.864;12.096;2023-05-29T11:49:51;3.50;;;3.03;;
11211;SDS011;5663;50.864;12.096;2023-05-29T11:52:27;8.00;;;3.40;;
11211;SDS011;5663;50.864;12.096;2023-05-29T11:55:06;7.18;;;3.50;;
11211;SDS011;5663;50.864;12.096;2023-05-29T11:57:36;4.35;;;3.17;;
11211;SDS011;5663;50.864;12.096;2023-05-29T12:00:12;4.90;;;3.75;;
11211;SDS011;5663;50.864;12.096;2023-05-29T12:02:50;4.47;;;3.42;;
11211;SDS011;5663;50.864;12.096;2023-05-29T12:05:43;5.75;;;3.30;;
11211;SDS011;5663;50.864;12.096;2023-05-29T12:08:21;3.88;;;3.28;;
11211;SDS011;5663;50.864;12.096;2023-05-29T12:10:57;5.75;;;3.38;;
11211;SDS011;5663;50.864;12.096;2023-05-29T12:13:28;4.70;;;3.33;;
11211;SDS011;5663;50.864;12.096;2023-05-29T12:15:59;4.13;;;3.20;;
11211;SDS011;5663;50.864;12.096;2023-05-29T12:18:32;5.80;;;3.50;;
11211;SDS011;5663;50.864;12.096;2023-05-29T12:21:04;5.55;;;3.35;;
11211;SDS011;5663;50.864;12.096;2023-05-29T12:23:53;4.70;;;2.88;;
11211;SDS011;5663;50.864;12.096;2023-05-29T12:27:02;3.67;;;3.08;;
11211;SDS011;5663;50.864;12.096;2023-05-29T12:29:58;6.10;;;3.53;;
11211;SDS011;5663;50.864;12.096;2023-05-29T13:38:18;5.13;;;3.47;;
11211;SDS011;5663;50.864;12.096;2023-05-29T13:40:48;4.68;;;3.13;;
11211;SDS011;5663;50.864;12.096;2023-05-29T13:43:22;4.13;;;3.50;;
11211;SDS011;5663;50.864;12.096;2023-05-29T13:45:53;8.65;;;4.00;;
11211;SDS011;5663;50.864;12.096;2023-05-29T13:48:51;9.02;;;3.85;;
11211;SDS011;5663;50.864;12.096;2023-05-29T13:51:34;7.85;;;3.33;;
11211;SDS011;5663;50.864;12.096;2023-05-29T13:54:10;6.80;;;3.65;;
11211;SDS011;5663;50.864;12.096;2023-05-29T13:56:38;6.50;;;3.63;;
11211;SDS011;5663;50.864;12.096;2023-05-29T13:59:13;7.82;;;3.80;;
11211;SDS011;5663;50.864;12.096;2023-05-29T14:01:41;8.02;;;3.80;;
11211;SDS011;5663;50.864;12.096;2023-05-29T14:04:11;5.82;;;3.50;;
11211;SDS011;5663;50.864;12.096;2023-05-29T14:06:39;4.57;;;3.15;;
11211;SDS011;5663;50.864;12.096;2023-05-29T14:09:12;15.52;;;4.10;;
11211;SDS011;5663;50.864;12.096;2023-05-29T14:11:41;14.13;;;4.88;;
11211;SDS011;5663;50.864;12.096;2023-05-29T14:14:13;6.03;;;3.60;;
11211;SDS011;5663;50.864;12.096;2023-05-29T14:16:41;6.03;;;3.80;;
11211;SDS011;5663;50.864;12.096;2023-05-29T14:19:13;8.20;;;3.85;;
11211;SDS011;5663;50.864;12.096;2023-05-29T14:21:42;5.07;;;3.60;;
11211;SDS011;5663;50.864;12.096;2023-05-29T14:24:13;7.65;;;3.60;;
11211;SDS011;5663;50.864;12.096;2023-05-29T14:26:43;3.72;;;3.00;;
11211;SDS011;5663;50.864;12.096;2023-05-29T14:29:14;6.25;;;3.30;;
11211;SDS011;5663;50.864;12.096;2023-05-29T14:31:43;5.55;;;3.80;;
11211;SDS011;5663;50.864;12.096;2023-05-29T14:34:20;7.95;;;3.67;;
11211;SDS011;5663;50.864;12.096;2023-05-29T14:36:57;6.25;;;3.47;;
11211;SDS011;5663;50.864;12.096;2023-05-29T14:39:38;6.88;;;3.45;;
11211;SDS011;5663;50.864;12.096;2023-05-29T14:42:18;5.88;;;3.58;;
11211;SDS011;5663;50.864;12.096;2023-05-29T14:44:59;5.50;;;3.30;;
11211;SDS011;5663;50.864;12.096;2023-05-29T14:47:28;4.85;;;3.22;;
11211;SDS011;5663;50.864;12.096;2023-05-29T14:50:03;9.05;;;3.97;;
11211;SDS011;5663;50.864;12.096;2023-05-29T14:52:35;6.00;;;3.60;;
11211;SDS011;5663;50.864;12.096;2023-05-29T14:55:06;5.22;;;3.92;;
11211;SDS011;5663;50.864;12.096;2023-05-29T14:57:37;4.80;;;3.28;;
11211;SDS011;5663;50.864;12.096;2023-05-29T15:00:05;5.47;;;3.28;;
11211;SDS011;5663;50.864;12.096;2023-05-29T15:02:35;4.00;;;3.00;;
11211;SDS011;5663;50.864;12.096;2023-05-29T15:05:06;5.43;;;3.58;;
11211;SDS011;5663;50.864;12.096;2023-05-29T15:07:34;4.93;;;3.15;;
11211;SDS011;5663;50.864;12.096;2023-05-29T15:10:09;4.13;;;3.45;;
11211;SDS011;5663;50.864;12.096;2023-05-29T15:12:38;4.93;;;3.45;;
11211;SDS011;5663;50.864;12.096;2023-05-29T15:15:06;5.47;;;3.35;;
11211;SDS011;5663;50.864;12.096;2023-05-29T15:17:34;5.25;;;3.35;;
11211;SDS011;5663;50.864;12.096;2023-05-29T15:20:04;6.07;;;3.50;;
11211;SDS011;5663;50.864;12.096;2023-05-29T15:22:34;4.25;;;3.35;;
11211;SDS011;5663;50.864;12.096;2023-05-29T15:25:10;5.93;;;3.88;;
11211;SDS011;5663;50.864;12.096;2023-05-29T15:27:49;5.13;;;3.22;;
11211;SDS011;5663;50.864;12.096;2023-05-29T15:30:26;3.72;;;3.17;;
11211;SDS011;5663;50.864;12.096;2023-05-29T15:33:03;4.43;;;3.28;;
11211;SDS011;5663;50.864;12.096;2023-05-29T15:35:35;5.53;;;3.72;;
11211;SDS011;5663;50.864;12.096;2023-05-29T15:38:03;4.65;;;3.08;;
11211;SDS011;5663;50.864;12.096;2023-05-29T15:40:35;5.53;;;3.13;;
11211;SDS011;5663;50.864;12.096;2023-05-29T15:43:07;5.63;;;3.35;;
11211;SDS011;5663;50.864;12.096;2023-05-29T15:45:48;4.55;;;3.17;;
11211;SDS011;5663;50.864;12.096;2023-05-29T15:48:19;7.57;;;3.88;;
11211;SDS011;5663;50.864;12.096;2023-05-29T15:50:58;4.43;;;3.22;;
11211;SDS011;5663;50.864;12.096;2023-05-29T15:53:30;6.85;;;3.67;;
11211;SDS011;5663;50.864;12.096;2023-05-29T15:56:13;4.25;;;3.40;;
11211;SDS011;5663;50.864;12.096;2023-05-29T15:58:49;4.60;;;3.78;;
11211;SDS011;5663;50.864;12.096;2023-05-29T16:01:22;5.38;;;3.42;;
11211;SDS011;5663;50.864;12.096;2023-05-29T16:08:14;5.18;;;3.00;;
11211;SDS011;5663;50.864;12.096;2023-05-29T16:15:14;5.75;;;3.40;;
11211;SDS011;5663;50.864;12.096;2023-05-29T16:18:19;5.63;;;3.42;;
11211;SDS011;5663;50.864;12.096;2023-05-29T16:21:21;5.40;;;3.40;;
11211;SDS011;5663;50.864;12.096;2023-05-29T16:24:34;4.18;;;3.30;;
11211;SDS011;5663;50.864;12.096;2023-05-29T16:27:59;4.88;;;3.30;;
11211;SDS011;5663;50.864;12.096;2023-05-29T16:33:58;5.63;;;3.67;;
11211;SDS011;5663;50.864;12.096;2023-05-29T16:39:39;5.15;;;3.33;;
11211;SDS011;5663;50.864;12.096;2023-05-29T16:42:21;5.65;;;4.20;;
11211;SDS011;5663;50.864;12.096;2023-05-29T16:45:05;6.05;;;4.18;;
11211;SDS011;5663;50.864;12.096;2023-05-29T16:47:35;8.45;;;4.13;;
11211;SDS011;5663;50.864;12.096;2023-05-29T16:50:04;18.75;;;4.80;;
11211;SDS011;5663;50.864;12.096;2023-05-29T16:52:59;6.10;;;3.80;;
11211;SDS011;5663;50.864;12.096;2023-05-29T16:55:27;6.50;;;3.58;;
11211;SDS011;5663;50.864;12.096;2023-05-29T16:57:56;5.65;;;3.28;;
11211;SDS011;5663;50.864;12.096;2023-05-29T17:00:35;4.03;;;2.85;;
11211;SDS011;5663;50.864;12.096;2023-05-29T17:03:16;4.15;;;3.15;;
11211;SDS011;5663;50.864;12.096;2023-05-29T17:05:58;6.72;;;3.53;;
11211;SDS011;5663;50.864;12.096;2023-05-29T17:08:43;4.32;;;3.30;;
11211;SDS011;5663;50.864;12.096;2023-05-29T17:11:20;4.30;;;3.20;;
11211;SDS011;5663;50.864;12.096;2023-05-29T17:14:00;4.72;;;3.30;;
11211;SDS011;5663;50.864;12.096;2023-05-29T17:21:08;5.50;;;3.10;;
11211;SDS011;5663;50.864;12.096;2023-05-29T17:24:32;5.97;;;3.30;;
11211;SDS011;5663;50.864;12.096;2023-05-29T18:16:38;6.82;;;3.40;;
11211;SDS011;5663;50.864;12.096;2023-05-29T18:24:01;7.30;;;3.30;;
11211;SDS011;5663;50.864;12.096;2023-05-29T18:26:33;6.32;;;3.10;;
11211;SDS011;5663;50.864;12.096;2023-05-29T18:29:20;4.50;;;3.30;;
11211;SDS011;5663;50.864;12.096;2023-05-29T18:32:03;4.03;;;3.03;;
11211;SDS011;5663;50.864;12.096;2023-05-29T18:35:03;4.05;;;3.03;;
11211;SDS011;5663;50.864;12.096;2023-05-29T18:37:44;4.90;;;3.20;;
11211;SDS011;5663;50.864;12.096;2023-05-29T18:40:25;5.82;;;3.20;;
11211;SDS011;5663;50.864;12.096;2023-05-29T18:43:03;6.55;;;3.15;;
11211;SDS011;5663;50.864;12.096;2023-05-29T18:45:41;6.32;;;3.20;;
11211;SDS011;5663;50.864;12.096;2023-05-29T18:48:49;3.83;;;3.10;;
11211;SDS011;5663;50.864;12.096;2023-05-29T18:51:46;4.70;;;3.30;;
11211;SDS011;5663;50.864;12.096;2023-05-29T18:57:44;4.88;;;3.33;;
11211;SDS011;5663;50.864;12.096;2023-05-29T19:03:47;5.70;;;3.38;;
11211;SDS011;5663;50.864;12.096;2023-05-29T19:07:13;4.95;;;3.15;;
11211;SDS011;5663;50.864;12.096;2023-05-29T19:10:00;6.18;;;3.45;;
11211;SDS011;5663;50.864;12.096;2023-05-29T19:12:50;4.18;;;3.05;;
11211;SDS011;5663;50.864;12.096;2023-05-29T19:15:22;5.90;;;3.60;;
11211;SDS011;5663;50.864;12.096;2023-05-29T19:17:54;7.97;;;3.63;;
11211;SDS011;5663;50.864;12.096;2023-05-29T19:20:28;4.17;;;3.33;;
11211;SDS011;5663;50.864;12.096;2023-05-29T19:23:25;5.80;;;2.87;;
11211;SDS011;5663;50.864;12.096;2023-05-29T19:26:54;9.77;;;3.53;;
11211;SDS011;5663;50.864;12.096;2023-05-29T19:29:36;6.93;;;3.37;;
11211;SDS011;5663;50.864;12.096;2023-05-29T19:32:18;6.30;;;3.80;;
11211;SDS011;5663;50.864;12.096;2023-05-29T19:38:40;7.90;;;3.50;;
11211;SDS011;5663;50.864;12.096;2023-05-29T19:41:34;4.97;;;3.30;;
11211;SDS011;5663;50.864;12.096;2023-05-29T19:44:42;7.30;;;3.50;;
11211;SDS011;5663;50.864;12.096;2023-05-29T19:47:20;5.77;;;3.63;;
11211;SDS011;5663;50.864;12.096;2023-05-29T19:50:22;5.20;;;3.20;;
11211;SDS011;5663;50.864;12.096;2023-05-29T19:53:16;5.13;;;3.30;;
11211;SDS011;5663;50.864;12.096;2023-05-29T19:55:53;5.87;;;3.47;;
11211;SDS011;5663;50.864;12.096;2023-05-29T19:58:35;7.57;;;3.90;;
11211;SDS011;5663;50.864;12.096;2023-05-29T20:01:17;7.60;;;3.33;;
11211;SDS011;5663;50.864;12.096;2023-05-29T20:03:58;5.83;;;3.80;;
11211;SDS011;5663;50.864;12.096;2023-05-29T20:06:57;6.03;;;3.40;;
11211;SDS011;5663;50.864;12.096;2023-05-29T20:09:44;4.80;;;3.43;;
11211;SDS011;5663;50.864;12.096;2023-05-29T20:12:17;6.87;;;3.63;;
11211;SDS011;5663;50.864;12.096;2023-05-29T20:14:59;5.83;;;3.60;;
11211;SDS011;5663;50.864;12.096;2023-05-29T20:17:37;6.67;;;3.67;;
11211;SDS011;5663;50.864;12.096;2023-05-29T20:20:22;9.07;;;4.00;;
11211;SDS011;5663;50.864;12.096;2023-05-29T20:23:30;8.37;;;3.40;;
11211;SDS011;5663;50.864;12.096;2023-05-29T20:26:20;5.23;;;3.30;;
11211;SDS011;5663;50.864;12.096;2023-05-29T20:29:05;6.77;;;3.37;;
11211;SDS011;5663;50.864;12.096;2023-05-29T20:31:50;4.43;;;3.00;;
11211;SDS011;5663;50.864;12.096;2023-05-29T20:34:37;5.97;;;3.50;;
11211;SDS011;5663;50.864;12.096;2023-05-29T20:37:23;5.67;;;3.40;;
11211;SDS011;5663;50.864;12.096;2023-05-29T20:40:10;5.70;;;3.30;;
11211;SDS011;5663;50.864;12.096;2023-05-29T20:43:18;5.53;;;2.77;;
11211;SDS011;5663;50.864;12.096;2023-05-29T20:46:25;4.10;;;3.00;;
11211;SDS011;5663;50.864;12.096;2023-05-29T20:49:07;5.60;;;3.20;;
11211;SDS011;5663;50.864;12.096;2023-05-29T20:51:45;5.73;;;2.87;;
11211;SDS011;5663;50.864;12.096;2023-05-29T20:54:22;3.40;;;2.50;;
11211;SDS011;5663;50.864;12.096;2023-05-29T20:57:33;6.03;;;2.87;;
11211;SDS011;5663;50.864;12.096;2023-05-29T21:00:10;6.97;;;2.70;;
11211;SDS011;5663;50.864;12.096;2023-05-29T21:02:53;4.90;;;2.63;;
11211;SDS011;5663;50.864;12.096;2023-05-29T21:05:30;3.83;;;2.80;;
11211;SDS011;5663;50.864;12.096;2023-05-29T21:09:52;4.00;;;2.60;;
11211;SDS011;5663;50.864;12.096;2023-05-29T21:11:39;4.47;;;2.90;;
11211;SDS011;5663;50.864;12.096;2023-05-29T21:14:24;5.07;;;2.80;;
11211;SDS011;5663;50.864;12.096;2023-05-29T21:17:24;4.60;;;2.67;;
11211;SDS011;5663;50.864;12.096;2023-05-29T21:19:55;5.90;;;2.80;;
11211;SDS011;5663;50.864;12.096;2023-05-29T21:22:36;4.33;;;2.60;;
11211;SDS011;5663;50.864;12.096;2023-05-29T21:25:19;4.87;;;2.90;;
11211;SDS011;5663;50.864;12.096;2023-05-29T21:27:55;6.83;;;2.80;;
11211;SDS011;5663;50.864;12.096;2023-05-29T21:30:37;5.10;;;2.87;;
11211;SDS011;5663;50.864;12.096;2023-05-29T21:33:16;5.33;;;2.90;;
11211;SDS011;5663;50.864;12.096;2023-05-29T21:35:55;3.90;;;2.60;;
11211;SDS011;5663;50.864;12.096;2023-05-29T21:38:33;8.97;;;3.00;;
11211;SDS011;5663;50.864;12.096;2023-05-29T21:41:06;4.47;;;2.40;;
11211;SDS011;5663;50.864;12.096;2023-05-29T21:44:15;6.60;;;2.90;;
11211;SDS011;5663;50.864;12.096;2023-05-29T21:47:18;4.63;;;2.80;;
11211;SDS011;5663;50.864;12.096;2023-05-29T21:50:32;6.23;;;2.33;;
11211;SDS011;5663;50.864;12.096;2023-05-29T21:53:05;7.27;;;3.10;;
11211;SDS011;5663;50.864;12.096;2023-05-29T21:55:38;5.63;;;2.73;;
11211;SDS011;5663;50.864;12.096;2023-05-29T21:58:21;6.47;;;3.20;;
11211;SDS011;5663;50.864;12.096;2023-05-29T22:00:56;5.17;;;2.50;;
11211;SDS011;5663;50.864;12.096;2023-05-29T22:03:35;5.20;;;2.60;;
11211;SDS011;5663;50.864;12.096;2023-05-29T22:06:21;5.37;;;2.83;;
11211;SDS011;5663;50.864;12.096;2023-05-29T22:09:04;3.97;;;2.40;;
11211;SDS011;5663;50.864;12.096;2023-05-29T22:11:37;4.33;;;2.23;;
11211;SDS011;5663;50.864;12.096;2023-05-29T22:14:28;7.27;;;2.50;;
11211;SDS011;5663;50.864;12.096;2023-05-29T22:17:05;4.50;;;2.50;;
11211;SDS011;5663;50.864;12.096;2023-05-29T22:19:50;6.97;;;2.60;;
11211;SDS011;5663;50.864;12.096;2023-05-29T22:22:39;4.47;;;2.33;;
11211;SDS011;5663;50.864;12.096;2023-05-29T22:25:11;3.83;;;2.40;;
11211;SDS011;5663;50.864;12.096;2023-05-29T22:27:51;4.70;;;2.40;;
11211;SDS011;5663;50.864;12.096;2023-05-29T22:30:23;4.90;;;1.97;;
11211;SDS011;5663;50.864;12.096;2023-05-29T22:33:10;5.13;;;2.20;;
11211;SDS011;5663;50.864;12.096;2023-05-29T22:35:59;6.87;;;2.43;;
11211;SDS011;5663;50.864;12.096;2023-05-29T22:38:49;4.70;;;2.33;;
11211;SDS011;5663;50.864;12.096;2023-05-29T22:41:19;5.53;;;2.50;;
11211;SDS011;5663;50.864;12.096;2023-05-29T22:44:08;4.80;;;2.50;;
11211;SDS011;5663;50.864;12.096;2023-05-29T22:46:45;6.43;;;2.60;;
11211;SDS011;5663;50.864;12.096;2023-05-29T22:49:14;4.13;;;2.80;;
11211;SDS011;5663;50.864;12.096;2023-05-29T22:51:55;4.67;;;2.37;;
11211;SDS011;5663;50.864;12.096;2023-05-29T22:54:30;5.23;;;2.20;;
11211;SDS011;5663;50.864;12.096;2023-05-29T22:57:04;4.70;;;2.20;;
11211;SDS011;5663;50.864;12.096;2023-05-29T22:59:45;3.87;;;2.63;;
11211;SDS011;5663;50.864;12.096;2023-05-29T23:02:24;5.10;;;2.83;;
11211;SDS011;5663;50.864;12.096;2023-05-29T23:05:09;6.53;;;2.40;;
11211;SDS011;5663;50.864;12.096;2023-05-29T23:07:47;6.57;;;2.67;;
11211;SDS011;5663;50.864;12.096;2023-05-29T23:10:37;7.10;;;2.83;;
11211;SDS011;5663;50.864;12.096;2023-05-29T23:13:11;7.97;;;3.13;;
11211;SDS011;5663;50.864;12.096;2023-05-29T23:15:41;4.17;;;2.70;;
11211;SDS011;5663;50.864;12.096;2023-05-29T23:18:11;7.73;;;2.70;;
11211;SDS011;5663;50.864;12.096;2023-05-29T23:20:43;5.30;;;2.43;;
11211;SDS011;5663;50.864;12.096;2023-05-29T23:23:15;4.23;;;2.53;;
11211;SDS011;5663;50.864;12.096;2023-05-29T23:25:53;5.83;;;2.93;;
11211;SDS011;5663;50.864;12.096;2023-05-29T23:28:27;4.50;;;2.57;;
11211;SDS011;5663;50.864;12.096;2023-05-29T23:30:56;4.93;;;2.40;;
11211;SDS011;5663;50.864;12.096;2023-05-29T23:33:25;7.03;;;2.70;;
11211;SDS011;5663;50.864;12.096;2023-05-29T23:35:59;8.27;;;3.30;;
11211;SDS011;5663;50.864;12.096;2023-05-29T23:38:36;7.50;;;2.80;;
11211;SDS011;5663;50.864;12.096;2023-05-29T23:41:19;6.57;;;2.70;;
11211;SDS011;5663;50.864;12.096;2023-05-29T23:44:06;5.67;;;2.60;;
11211;SDS011;5663;50.864;12.096;2023-05-29T23:46:35;6.63;;;3.00;;
11211;SDS011;5663;50.864;12.096;2023-05-29T23:49:05;6.50;;;2.87;;
11211;SDS011;5663;50.864;12.096;2023-05-29T23:51:43;3.73;;;2.10;;
11211;SDS011;5663;50.864;12.096;2023-05-29T23:54:19;5.77;;;2.83;;
11211;SDS011;5663;50.864;12.096;2023-05-29T23:57:05;4.53;;;2.87;;
11211;SDS011;5663;50.864;12.096;2023-05-29T23:59:37;5.57;;;2.57;;
